Time;durP1;ratioP1;P1;durP2;ratioP2;P2;SDS_P1;SDS_P2;PMS_P1;PMS_P2;Temp;Humidity;BMP_temperature;BMP_pressure;BME280_temperature;BME280_humidity;BME280_pressure;Samples;Min_cycle;Max_cycle;Signal;HPM_P1;HPM_P2
2020/12/31 11:37:35;;;;;;;15.38;5.70;;;6.30;99.90;;;;;;5115967;27;20678;-77
2020/12/31 11:42:42;;;;;;;7.32;5.13;;;7.10;99.90;;;;;;5114600;27;20326;-76
2020/12/31 11:45:08;;;;;;;7.88;4.47;;;7.30;99.90;;;;;;5107551;27;20146;-77
2020/12/31 11:47:34;;;;;;;7.80;4.85;;;7.50;99.90;;;;;;5099863;28;20024;-77
2020/12/31 11:50:00;;;;;;;7.25;4.32;;;7.70;99.90;;;;;;5084000;28;20051;-76
2020/12/31 11:52:26;;;;;;;11.40;6.15;;;7.70;99.90;;;;;;5090867;28;20024;-78
2020/12/31 11:54:53;;;;;;;12.13;5.25;;;7.80;99.90;;;;;;5092372;28;20025;-79
2020/12/31 11:57:18;;;;;;;11.70;5.30;;;7.80;99.90;;;;;;5085077;28;20021;-79
2020/12/31 11:59:44;;;;;;;6.10;4.30;;;8.00;99.90;;;;;;5083417;28;20111;-78
2020/12/31 12:02:09;;;;;;;7.70;4.70;;;8.00;99.90;;;;;;5072237;28;20032;-77
2020/12/31 12:04:35;;;;;;;7.40;4.28;;;8.20;99.90;;;;;;5108781;28;20035;-76
2020/12/31 12:07:01;;;;;;;10.05;5.32;;;8.30;99.90;;;;;;5090740;28;20024;-78
2020/12/31 12:09:27;;;;;;;12.35;5.40;;;8.40;99.90;;;;;;5088625;28;20449;-76
2020/12/31 12:11:52;;;;;;;6.80;4.35;;;8.50;99.90;;;;;;5078610;28;20103;-78
2020/12/31 12:14:18;;;;;;;6.80;3.80;;;8.50;99.90;;;;;;5092534;28;20060;-79
2020/12/31 12:16:48;;;;;;;6.35;4.32;;;8.50;99.90;;;;;;5090614;28;20036;-78
2020/12/31 12:19:14;;;;;;;7.95;4.88;;;8.40;99.90;;;;;;5085034;28;20394;-77
2020/12/31 12:21:39;;;;;;;8.00;5.55;;;8.20;99.90;;;;;;5071503;28;20120;-78
2020/12/31 12:24:06;;;;;;;7.78;4.70;;;8.20;99.90;;;;;;5098506;28;20479;-78
2020/12/31 12:26:36;;;;;;;9.85;5.20;;;8.00;99.90;;;;;;5084492;28;20020;-77
2020/12/31 12:29:03;;;;;;;9.50;4.60;;;8.00;99.90;;;;;;5084633;28;20021;-76
2020/12/31 12:31:38;;;;;;;8.07;4.50;;;8.00;99.90;;;;;;5090610;28;20033;-78
2020/12/31 12:34:06;;;;;;;6.57;4.50;;;7.90;99.90;;;;;;5088287;28;20028;-77
2020/12/31 12:36:32;;;;;;;11.95;5.22;;;7.90;99.90;;;;;;5086152;28;20036;-77
2020/12/31 12:39:00;;;;;;;7.43;4.20;;;8.00;99.90;;;;;;5090072;28;20036;-76
2020/12/31 12:41:25;;;;;;;18.23;5.40;;;8.10;99.90;;;;;;5089583;28;20044;-78
2020/12/31 12:43:51;;;;;;;23.40;8.23;;;8.10;99.90;;;;;;5087075;28;20493;-77
2020/12/31 12:46:18;;;;;;;23.60;8.18;;;8.20;99.90;;;;;;5085364;28;20534;-78
2020/12/31 12:48:44;;;;;;;18.00;6.30;;;8.40;99.90;;;;;;5089646;28;20026;-78
2020/12/31 12:51:10;;;;;;;9.98;4.30;;;8.50;99.90;;;;;;5085713;28;20044;-78
2020/12/31 12:53:37;;;;;;;11.30;5.05;;;8.40;99.90;;;;;;5078426;28;20025;-78
2020/12/31 12:56:03;;;;;;;14.48;4.95;;;8.50;99.90;;;;;;5075809;28;20032;-77
2020/12/31 12:58:29;;;;;;;11.32;4.40;;;8.50;99.90;;;;;;5056903;28;20025;-77
2020/12/31 13:00:56;;;;;;;10.65;5.20;;;8.60;99.90;;;;;;5070311;28;20098;-77
2020/12/31 13:03:21;;;;;;;10.20;4.95;;;8.60;99.90;;;;;;5074413;28;20100;-78
2020/12/31 13:05:49;;;;;;;19.77;5.45;;;8.70;99.90;;;;;;5049987;28;20127;-77
2020/12/31 13:08:14;;;;;;;5.63;4.13;;;8.60;99.90;;;;;;5069695;28;20387;-79
2020/12/31 13:10:47;;;;;;;7.88;4.60;;;8.60;99.90;;;;;;5073394;28;20031;-78
2020/12/31 13:13:13;;;;;;;7.68;4.88;;;8.50;99.90;;;;;;5048516;28;20033;-76
2020/12/31 13:15:42;;;;;;;12.90;5.15;;;8.50;99.90;;;;;;5060382;28;20076;-78
2020/12/31 13:18:09;;;;;;;11.63;5.90;;;8.40;99.90;;;;;;5068647;28;20471;-78
2020/12/31 13:20:34;;;;;;;14.00;5.80;;;8.40;99.90;;;;;;5053224;28;20045;-78
2020/12/31 13:23:00;;;;;;;15.07;5.45;;;8.40;99.90;;;;;;5070726;28;20031;-78
2020/12/31 13:25:26;;;;;;;11.40;4.70;;;8.40;99.90;;;;;;5049354;28;20037;-77
2020/12/31 13:27:54;;;;;;;12.27;4.82;;;8.20;99.90;;;;;;5051833;28;20566;-77
2020/12/31 13:30:20;;;;;;;11.38;4.72;;;8.20;99.90;;;;;;5066919;28;20052;-77
2020/12/31 13:32:48;;;;;;;8.70;5.35;;;8.10;99.90;;;;;;5069059;28;20119;-77
2020/12/31 13:35:14;;;;;;;8.23;5.20;;;8.10;99.90;;;;;;5072130;28;20024;-78
2020/12/31 13:37:40;;;;;;;8.95;5.28;;;8.10;99.90;;;;;;5068303;28;20083;-77
2020/12/31 13:40:06;;;;;;;11.65;5.55;;;8.10;99.90;;;;;;5055963;28;20021;-76
2020/12/31 13:42:33;;;;;;;9.02;5.22;;;8.20;99.90;;;;;;5071877;28;20036;-76
2020/12/31 13:44:59;;;;;;;14.52;6.18;;;8.30;99.90;;;;;;5070326;28;20509;-78
2020/12/31 13:47:25;;;;;;;13.30;5.68;;;8.40;99.90;;;;;;5062604;28;20037;-78
2020/12/31 13:49:50;;;;;;;9.63;5.38;;;8.40;99.90;;;;;;5050916;28;20395;-78
2020/12/31 13:52:16;;;;;;;15.30;5.28;;;8.40;99.90;;;;;;5068889;28;20021;-77
2020/12/31 13:54:42;;;;;;;8.88;4.65;;;8.40;99.90;;;;;;5066045;28;20028;-77
2020/12/31 13:57:07;;;;;;;10.13;5.10;;;8.30;99.90;;;;;;5059862;28;20029;-77
2020/12/31 13:59:33;;;;;;;13.52;6.15;;;8.30;99.90;;;;;;5051101;28;20028;-77
2020/12/31 14:01:59;;;;;;;11.32;5.53;;;8.40;99.90;;;;;;5048795;28;20423;-78
2020/12/31 14:04:24;;;;;;;12.75;6.10;;;8.30;99.90;;;;;;5071022;28;20380;-80
2020/12/31 14:06:54;;;;;;;12.20;5.60;;;8.20;99.90;;;;;;5066222;28;20020;-74
2020/12/31 14:09:20;;;;;;;17.63;6.28;;;8.30;99.90;;;;;;5065715;28;20024;-75
2020/12/31 14:11:53;;;;;;;14.60;6.50;;;8.40;99.90;;;;;;5062591;28;20029;-75
